createdAt,value
2023-02-09T00:02:43.485Z,15.00
2023-02-09T00:05:44.888Z,13.73
2023-02-09T00:08:46.340Z,19.58
2023-02-09T00:12:07.019Z,19.90
2023-02-09T00:15:08.619Z,16.33
2023-02-09T00:18:10.025Z,18.42
2023-02-09T00:21:11.740Z,14.73
2023-02-09T00:24:14.721Z,15.60
2023-02-09T00:27:16.390Z,13.85
2023-02-09T00:30:17.831Z,14.13
2023-02-09T00:33:19.896Z,16.27
2023-02-09T00:36:21.511Z,18.83
2023-02-09T00:39:22.939Z,19.03
2023-02-09T00:42:24.343Z,17.25
2023-02-09T00:45:26.434Z,16.07
2023-02-09T00:48:28.770Z,16.13
2023-02-09T00:54:32.392Z,15.27
2023-02-09T00:57:33.870Z,15.07
2023-02-09T01:00:35.327Z,15.02
2023-02-09T01:06:39.117Z,15.50
2023-02-09T01:09:40.603Z,16.63
2023-02-09T01:12:43.030Z,15.73
2023-02-09T01:18:46.824Z,16.13
2023-02-09T01:21:48.610Z,15.03
2023-02-09T01:24:50.589Z,14.35
2023-02-09T01:27:52.054Z,14.40
2023-02-09T01:30:53.720Z,15.18
2023-02-09T01:33:57.010Z,13.38
2023-02-09T01:37:01.745Z,14.63
2023-02-09T01:40:04.051Z,14.83
2023-02-09T01:43:05.587Z,15.52
2023-02-09T01:46:07.135Z,16.38
2023-02-09T01:49:12.386Z,16.27
2023-02-09T01:52:19.299Z,15.77
2023-02-09T01:55:25.598Z,15.43
2023-02-09T01:58:28.595Z,15.02
2023-02-09T02:01:30.238Z,14.73
2023-02-09T02:04:32.974Z,15.43
2023-02-09T02:07:59.445Z,15.75
2023-02-09T02:11:01.311Z,15.35
2023-02-09T02:14:02.796Z,15.00
2023-02-09T02:17:28.434Z,16.80
2023-02-09T02:20:32.797Z,15.50
2023-02-09T02:24:04.307Z,15.80
2023-02-09T02:27:10.700Z,15.43
2023-02-09T02:30:21.132Z,16.42
2023-02-09T02:33:45.308Z,16.85
2023-02-09T02:37:01.853Z,14.60
2023-02-09T02:40:13.289Z,15.20
2023-02-09T02:43:25.077Z,16.25
2023-02-09T02:46:35.867Z,18.17
2023-02-09T02:49:55.269Z,17.77
2023-02-09T02:53:02.881Z,16.77
2023-02-09T02:56:15.487Z,17.58
2023-02-09T02:59:22.374Z,16.90
2023-02-09T03:02:29.950Z,16.05
2023-02-09T03:05:32.892Z,15.68
2023-02-09T03:08:52.780Z,14.70
2023-02-09T03:11:58.649Z,16.83
2023-02-09T03:15:18.254Z,15.85
2023-02-09T03:18:52.299Z,16.77
2023-02-09T03:22:05.939Z,16.50
2023-02-09T03:25:29.661Z,15.80
2023-02-09T03:28:35.091Z,15.82
2023-02-09T03:31:37.619Z,16.35
2023-02-09T03:34:39.309Z,15.82
2023-02-09T03:37:40.732Z,15.55
2023-02-09T03:40:42.624Z,17.05
2023-02-09T03:44:02.715Z,16.10
2023-02-09T03:47:06.808Z,15.35
2023-02-09T03:50:09.934Z,16.00
2023-02-09T03:53:11.377Z,16.58
2023-02-09T03:56:12.785Z,16.93
2023-02-09T03:59:14.253Z,14.95
2023-02-09T04:02:15.773Z,16.03
2023-02-09T04:05:17.472Z,16.23
2023-02-09T04:08:19.017Z,16.77
2023-02-09T04:11:21.686Z,16.40
2023-02-09T04:14:24.741Z,15.85
2023-02-09T04:17:26.311Z,14.85
2023-02-09T04:20:27.749Z,16.07
2023-02-09T04:23:29.317Z,16.48
2023-02-09T04:26:31.250Z,15.57
2023-02-09T04:29:32.687Z,15.95
2023-02-09T04:32:34.067Z,16.10
2023-02-09T04:35:35.462Z,14.82
2023-02-09T04:38:37.317Z,15.68
2023-02-09T04:41:38.848Z,15.93
2023-02-09T04:44:40.229Z,16.50
2023-02-09T04:47:41.654Z,16.25
2023-02-09T04:50:43.927Z,15.77
2023-02-09T04:53:45.551Z,15.90
2023-02-09T04:56:47.056Z,16.37
2023-02-09T04:59:48.489Z,17.83
2023-02-09T05:02:49.953Z,17.30
2023-02-09T05:05:56.328Z,17.10
2023-02-09T05:08:57.724Z,15.65
2023-02-09T05:11:59.101Z,16.73
2023-02-09T05:15:00.600Z,15.97
2023-02-09T05:18:01.979Z,16.83
2023-02-09T05:21:04.059Z,17.03
2023-02-09T05:24:05.904Z,16.15
2023-02-09T05:27:07.360Z,18.02
2023-02-09T05:30:09.720Z,18.48
2023-02-09T05:33:11.182Z,16.77
2023-02-09T05:36:12.726Z,17.20
2023-02-09T05:39:14.190Z,17.23
2023-02-09T05:42:15.645Z,19.25
2023-02-09T05:45:17.086Z,17.73
2023-02-09T05:48:18.507Z,18.83
2023-02-09T05:51:19.903Z,19.77
2023-02-09T05:54:21.683Z,18.52
2023-02-09T05:57:23.117Z,19.65
2023-02-09T06:00:25.084Z,18.73
2023-02-09T06:03:26.677Z,18.20
2023-02-09T06:06:28.215Z,17.88
2023-02-09T06:09:29.844Z,17.57
2023-02-09T06:12:31.230Z,18.58
2023-02-09T06:15:32.850Z,18.35
2023-02-09T06:18:34.452Z,17.80
2023-02-09T06:21:35.899Z,17.67
2023-02-09T06:24:37.437Z,17.20
2023-02-09T06:27:38.861Z,17.37
2023-02-09T06:30:40.289Z,18.13
2023-02-09T06:33:41.813Z,17.37
2023-02-09T06:36:43.249Z,17.50
2023-02-09T06:39:44.769Z,17.57
2023-02-09T06:42:46.273Z,18.20
2023-02-09T06:45:47.716Z,20.77
2023-02-09T06:48:49.187Z,19.87
2023-02-09T06:51:50.774Z,20.10
2023-02-09T06:54:52.352Z,19.80
2023-02-09T06:57:54.840Z,20.25
2023-02-09T07:01:01.733Z,20.38
2023-02-09T07:04:03.162Z,21.20
2023-02-09T07:07:04.577Z,20.67
2023-02-09T07:10:07.514Z,20.50
2023-02-09T07:13:08.910Z,21.17
2023-02-09T07:16:15.802Z,19.70
2023-02-09T07:19:17.240Z,19.92
2023-02-09T07:22:18.697Z,20.40
2023-02-09T07:25:20.275Z,19.00
2023-02-09T07:28:22.415Z,18.25
2023-02-09T07:31:24.038Z,18.98
2023-02-09T07:34:25.797Z,18.38
2023-02-09T07:37:27.282Z,19.58
2023-02-09T07:40:29.036Z,21.05
2023-02-09T07:43:30.974Z,18.87
2023-02-09T07:46:32.808Z,18.60
2023-02-09T07:49:35.677Z,19.88
2023-02-09T07:52:37.262Z,20.45
2023-02-09T07:55:40.260Z,19.13
2023-02-09T07:58:41.742Z,20.10
2023-02-09T08:01:43.194Z,20.80
2023-02-09T08:04:44.876Z,20.70
2023-02-09T08:07:46.490Z,20.52
2023-02-09T08:10:48.088Z,22.38
2023-02-09T08:13:51.098Z,21.75
2023-02-09T08:17:15.979Z,20.80
2023-02-09T08:20:20.795Z,20.42
2023-02-09T08:23:27.425Z,19.60
2023-02-09T08:26:29.328Z,21.88
2023-02-09T08:29:30.850Z,20.17
2023-02-09T08:32:32.477Z,20.73
2023-02-09T08:35:33.966Z,21.20
2023-02-09T08:38:35.681Z,20.97
2023-02-09T08:41:37.838Z,20.02
2023-02-09T08:44:39.276Z,20.25
2023-02-09T08:47:40.739Z,21.33
2023-02-09T08:50:42.360Z,22.00
2023-02-09T08:53:47.802Z,20.33
2023-02-09T08:56:49.192Z,20.08
2023-02-09T08:59:50.643Z,19.08
2023-02-09T09:02:52.115Z,19.63
2023-02-09T09:06:07.532Z,20.43
2023-02-09T09:09:09.067Z,20.05
2023-02-09T09:12:10.586Z,20.03
2023-02-09T09:15:12.028Z,20.73
2023-02-09T09:18:13.616Z,19.80
2023-02-09T09:21:16.984Z,21.33
2023-02-09T09:24:18.416Z,20.10
2023-02-09T09:27:19.806Z,19.33
2023-02-09T09:30:21.295Z,18.95
2023-02-09T09:33:22.804Z,21.50
2023-02-09T09:36:24.277Z,22.65
2023-02-09T09:39:26.265Z,20.73
2023-02-09T09:42:41.684Z,21.60
2023-02-09T09:45:45.943Z,21.45
2023-02-09T09:48:51.191Z,22.58
2023-02-09T09:52:00.601Z,20.80
2023-02-09T09:55:07.026Z,21.23
2023-02-09T09:58:17.695Z,22.10
2023-02-09T10:01:21.141Z,21.25
2023-02-09T10:04:22.628Z,24.08
2023-02-09T10:07:30.839Z,22.70
2023-02-09T10:10:47.330Z,22.95
2023-02-09T10:13:54.343Z,23.05
2023-02-09T10:16:55.807Z,23.33
2023-02-09T10:20:05.558Z,23.10
2023-02-09T10:23:17.456Z,24.67
2023-02-09T10:26:22.905Z,22.27
2023-02-09T10:29:25.881Z,21.58
2023-02-09T10:32:39.923Z,23.05
2023-02-09T10:35:54.325Z,23.83
2023-02-09T10:39:05.093Z,21.75
2023-02-09T10:42:17.597Z,22.00
2023-02-09T10:48:38.480Z,20.92
2023-02-09T10:51:39.924Z,19.63
2023-02-09T10:54:49.350Z,20.43
2023-02-09T10:57:50.861Z,20.77
2023-02-09T11:01:06.339Z,20.50
2023-02-09T11:04:20.348Z,19.80
2023-02-09T11:07:26.557Z,19.58
2023-02-09T11:10:29.971Z,18.95
2023-02-09T11:13:33.403Z,20.75
2023-02-09T11:16:54.459Z,19.48
2023-02-09T11:20:03.349Z,22.25
2023-02-09T11:23:38.538Z,23.20
2023-02-09T11:26:51.688Z,24.60
2023-02-09T11:30:06.808Z,24.10
2023-02-09T11:33:18.828Z,25.33
2023-02-09T11:36:41.845Z,31.05
2023-02-09T11:39:46.136Z,23.75
2023-02-09T11:43:12.522Z,24.70
2023-02-09T11:46:22.149Z,22.10
2023-02-09T11:49:26.907Z,21.73
2023-02-09T11:52:36.376Z,21.77
2023-02-09T11:55:45.350Z,19.88
2023-02-09T11:58:53.269Z,21.83
2023-02-09T12:02:32.540Z,22.60
2023-02-09T12:05:34.561Z,21.23
2023-02-09T12:08:50.043Z,20.95
2023-02-09T12:12:03.527Z,22.60
2023-02-09T12:15:15.608Z,22.88
2023-02-09T12:18:34.132Z,22.45
2023-02-09T12:21:38.525Z,22.15
2023-02-09T12:24:40.624Z,22.48
2023-02-09T12:28:03.494Z,22.27
2023-02-09T12:31:16.779Z,20.63
2023-02-09T12:34:28.882Z,22.25
2023-02-09T12:37:30.403Z,21.63
2023-02-09T12:40:36.992Z,21.17
2023-02-09T12:43:39.503Z,22.30
2023-02-09T12:46:44.026Z,21.60
2023-02-09T12:49:45.554Z,21.50
2023-02-09T12:53:24.438Z,19.43
2023-02-09T12:56:29.476Z,19.00
2023-02-09T12:59:30.976Z,20.52
2023-02-09T13:02:49.907Z,20.60
2023-02-09T13:05:55.945Z,23.00
2023-02-09T13:09:02.114Z,20.83
2023-02-09T13:12:18.248Z,20.48
2023-02-09T13:15:19.835Z,19.85
2023-02-09T13:18:33.121Z,21.23
2023-02-09T13:21:48.492Z,20.23
2023-02-09T13:24:58.539Z,21.23
2023-02-09T13:28:18.042Z,20.80
2023-02-09T13:31:29.291Z,22.20
2023-02-09T13:34:58.992Z,20.88
2023-02-09T13:38:13.903Z,21.88
2023-02-09T13:41:36.074Z,20.92
2023-02-09T13:44:45.335Z,20.13
2023-02-09T13:47:47.852Z,30.05
2023-02-09T13:50:51.222Z,24.27
2023-02-09T13:53:58.085Z,21.73
2023-02-09T13:57:01.184Z,20.92
2023-02-09T14:00:35.778Z,20.58
2023-02-09T14:03:57.539Z,24.00
2023-02-09T14:10:16.641Z,22.67
2023-02-09T14:13:21.832Z,19.45
2023-02-09T14:16:26.245Z,23.42
2023-02-09T14:19:31.965Z,22.80
2023-02-09T14:22:37.109Z,22.95
2023-02-09T14:25:40.211Z,23.33
2023-02-09T14:28:46.224Z,21.42
2023-02-09T14:32:03.924Z,22.13
2023-02-09T14:35:26.588Z,21.48
2023-02-09T14:42:19.067Z,22.92
2023-02-09T14:45:36.425Z,23.92
2023-02-09T14:48:37.860Z,21.25
2023-02-09T14:51:39.360Z,21.10
2023-02-09T14:54:49.044Z,21.63
2023-02-09T14:57:50.500Z,21.58
2023-02-09T15:00:54.436Z,20.70
2023-02-09T15:03:56.006Z,24.60
2023-02-09T15:07:03.951Z,23.50
2023-02-09T15:10:12.202Z,23.08
2023-02-09T15:13:15.447Z,22.48
2023-02-09T15:16:16.932Z,22.55
2023-02-09T15:19:21.476Z,23.23
2023-02-09T15:22:24.074Z,22.77
2023-02-09T15:25:25.463Z,23.13
2023-02-09T15:28:32.245Z,23.88
2023-02-09T15:31:33.890Z,22.50
2023-02-09T15:34:35.343Z,23.85
2023-02-09T15:37:38.547Z,24.15
2023-02-09T15:41:03.498Z,21.52
2023-02-09T15:44:33.936Z,21.85
2023-02-09T15:47:52.674Z,22.10
2023-02-09T15:50:54.142Z,23.70
2023-02-09T15:53:58.843Z,22.57
2023-02-09T15:57:01.037Z,22.13
2023-02-09T16:00:02.819Z,22.02
2023-02-09T16:03:14.689Z,22.05
2023-02-09T16:06:22.313Z,22.67
2023-02-09T16:09:28.101Z,23.40
2023-02-09T16:12:30.020Z,23.38
2023-02-09T16:15:31.656Z,22.25
2023-02-09T16:18:33.233Z,21.40
2023-02-09T16:21:34.858Z,22.57
2023-02-09T16:24:40.963Z,23.83
2023-02-09T16:27:42.434Z,24.77
2023-02-09T16:30:55.618Z,23.53
2023-02-09T16:33:57.121Z,23.73
2023-02-09T16:36:58.661Z,24.07
2023-02-09T16:40:01.597Z,24.60
2023-02-09T16:43:03.221Z,25.23
2023-02-09T16:46:05.012Z,26.53
2023-02-09T16:49:06.839Z,27.65
2023-02-09T16:52:15.040Z,26.27
2023-02-09T16:55:26.603Z,25.38
2023-02-09T16:58:28.927Z,25.30
2023-02-09T17:01:30.403Z,26.05
2023-02-09T17:04:31.979Z,27.33
2023-02-09T17:07:48.653Z,27.70
2023-02-09T17:10:56.401Z,29.80
2023-02-09T17:13:57.828Z,30.70
2023-02-09T17:16:59.479Z,32.43
2023-02-09T17:20:00.935Z,29.95
2023-02-09T17:23:02.418Z,30.75
2023-02-09T17:26:03.981Z,32.90
2023-02-09T17:29:05.432Z,37.17
2023-02-09T17:32:07.168Z,35.40
2023-02-09T17:35:14.569Z,34.08
2023-02-09T17:38:29.731Z,33.70
2023-02-09T17:41:36.909Z,32.92
2023-02-09T17:44:46.080Z,33.28
2023-02-09T17:47:50.403Z,32.63
2023-02-09T17:50:52.970Z,36.85
2023-02-09T17:53:55.578Z,37.03
2023-02-09T17:56:57.104Z,43.90
2023-02-09T17:59:58.536Z,51.83
2023-02-09T18:03:00.049Z,43.90
2023-02-09T18:06:02.960Z,38.23
2023-02-09T18:09:07.383Z,30.63
2023-02-09T18:12:26.464Z,30.80
2023-02-09T18:15:33.392Z,29.45
2023-02-09T18:18:35.053Z,31.48
2023-02-09T18:21:36.892Z,31.73
2023-02-09T18:24:38.378Z,30.08
2023-02-09T18:27:39.837Z,32.53
2023-02-09T18:30:42.764Z,31.90
2023-02-09T18:33:44.974Z,33.10
2023-02-09T18:36:46.500Z,32.22
2023-02-09T18:39:47.987Z,33.70
2023-02-09T18:42:49.801Z,31.83
2023-02-09T18:45:51.285Z,33.15
2023-02-09T18:48:54.261Z,32.23
2023-02-09T18:51:56.977Z,32.78
2023-02-09T18:54:58.504Z,34.22
2023-02-09T18:58:02.986Z,33.03
2023-02-09T19:01:10.446Z,32.63
2023-02-09T19:04:12.777Z,31.52
2023-02-09T19:07:14.241Z,32.20
2023-02-09T19:10:20.105Z,33.28
2023-02-09T19:13:21.849Z,32.50
2023-02-09T19:16:23.320Z,32.78
2023-02-09T19:19:24.786Z,32.80
2023-02-09T19:22:26.191Z,32.55
2023-02-09T19:25:29.720Z,33.88
2023-02-09T19:28:31.998Z,31.70
2023-02-09T19:31:33.721Z,32.08
2023-02-09T19:34:38.810Z,32.60
2023-02-09T19:37:42.059Z,31.58
2023-02-09T19:40:47.943Z,32.30
2023-02-09T19:43:54.751Z,34.60
2023-02-09T19:46:56.192Z,34.72
2023-02-09T19:49:58.456Z,35.80
2023-02-09T19:53:00.114Z,32.95
2023-02-09T19:56:01.815Z,33.78
2023-02-09T19:59:03.914Z,34.47
2023-02-09T20:02:05.489Z,37.80
2023-02-09T20:05:07.470Z,45.80
2023-02-09T20:08:11.569Z,62.25
2023-02-09T20:11:17.143Z,49.33
2023-02-09T20:14:18.650Z,34.70
2023-02-09T20:17:20.522Z,37.93
2023-02-09T20:20:22.157Z,37.35
2023-02-09T20:23:23.883Z,42.78
2023-02-09T20:26:29.392Z,41.53
2023-02-09T20:29:30.893Z,37.45
2023-02-09T20:32:32.777Z,36.00
2023-02-09T20:35:34.199Z,34.13
2023-02-09T20:38:37.027Z,34.63
2023-02-09T20:41:38.831Z,33.30
2023-02-09T20:44:58.907Z,35.33
2023-02-09T20:48:00.321Z,34.97
2023-02-09T20:51:03.928Z,36.53
2023-02-09T20:54:06.402Z,35.80
2023-02-09T21:00:10.216Z,43.28
2023-02-09T21:03:12.309Z,42.00
2023-02-09T21:06:14.255Z,42.03
2023-02-09T21:09:15.951Z,40.25
2023-02-09T21:12:17.748Z,41.08
2023-02-09T21:15:19.475Z,36.95
2023-02-09T21:18:21.982Z,34.65
2023-02-09T21:24:25.903Z,33.20
2023-02-09T21:27:27.415Z,33.05
2023-02-09T21:33:31.187Z,34.45
2023-02-09T21:36:32.670Z,34.63
2023-02-09T21:39:34.762Z,34.83
2023-02-09T21:42:37.295Z,33.63
2023-02-09T21:45:39.753Z,32.80
2023-02-09T21:48:41.356Z,34.72
2023-02-09T21:51:43.098Z,35.45
2023-02-09T21:54:44.531Z,35.35
2023-02-09T21:57:45.995Z,35.20
2023-02-09T22:00:56.717Z,34.10
2023-02-09T22:03:58.431Z,34.00
2023-02-09T22:07:00.104Z,33.97
2023-02-09T22:10:05.041Z,35.90
2023-02-09T22:13:08.807Z,35.47
2023-02-09T22:16:11.087Z,36.80
2023-02-09T22:22:14.026Z,37.88
2023-02-09T22:25:15.519Z,44.33
2023-02-09T22:28:16.974Z,36.70
2023-02-09T22:31:20.557Z,35.33
2023-02-09T22:34:22.115Z,35.03
2023-02-09T22:37:23.513Z,36.17
2023-02-09T22:40:25.070Z,33.70
2023-02-09T22:43:26.711Z,37.00
2023-02-09T22:46:37.065Z,39.00
2023-02-09T22:49:38.484Z,45.72
2023-02-09T22:52:39.877Z,39.80
2023-02-09T22:55:41.320Z,35.50
2023-02-09T22:58:42.979Z,36.97
2023-02-09T23:01:45.211Z,35.03
2023-02-09T23:04:46.779Z,32.30
2023-02-09T23:07:52.596Z,35.10
2023-02-09T23:10:54.080Z,34.15
2023-02-09T23:14:11.677Z,35.63
2023-02-09T23:17:16.092Z,35.55
2023-02-09T23:20:18.079Z,34.45
2023-02-09T23:23:22.537Z,32.05
2023-02-09T23:26:27.235Z,33.15
2023-02-09T23:29:32.084Z,32.28
2023-02-09T23:32:36.556Z,33.45
2023-02-09T23:35:41.920Z,31.77
2023-02-09T23:38:49.466Z,34.45
2023-02-09T23:41:50.972Z,31.10
2023-02-09T23:44:52.412Z,33.73
2023-02-09T23:47:56.001Z,34.10
2023-02-09T23:51:26.494Z,31.02
2023-02-09T23:54:31.903Z,33.00
2023-02-09T23:57:37.043Z,31.92
